Time;durP1;ratioP1;P1;durP2;ratioP2;P2;SDS_P1;SDS_P2;PMS_P1;PMS_P2;Temp;Humidity;BMP_temperature;BMP_pressure;BME280_temperature;BME280_humidity;BME280_pressure;Samples;Min_cycle;Max_cycle;Signal;HPM_P1;HPM_P2
2021/08/06 00:01:56;;;;;;;17.40;15.38;;;17.00;99.90;;;;;;5096365;28;20115;-71
2021/08/06 00:04:22;;;;;;;18.55;15.85;;;16.90;99.90;;;;;;5096538;28;20036;-71
2021/08/06 00:06:47;;;;;;;17.60;15.82;;;17.00;99.90;;;;;;5096570;28;20560;-71
2021/08/06 00:09:13;;;;;;;16.75;14.63;;;16.90;99.90;;;;;;5095974;28;20150;-71
2021/08/06 00:11:39;;;;;;;16.65;14.68;;;16.90;99.90;;;;;;5096504;28;20472;-71
2021/08/06 00:14:06;;;;;;;17.45;15.60;;;16.90;99.90;;;;;;5096195;28;20043;-71
2021/08/06 00:16:32;;;;;;;16.88;15.07;;;16.90;99.90;;;;;;5096290;28;20068;-72
2021/08/06 00:18:58;;;;;;;18.08;16.17;;;16.90;99.90;;;;;;5095825;28;20040;-71
2021/08/06 00:21:23;;;;;;;17.60;15.30;;;16.80;99.90;;;;;;5096148;28;20498;-71
2021/08/06 00:23:49;;;;;;;16.38;14.73;;;16.70;99.90;;;;;;5096116;28;20047;-71
2021/08/06 00:26:15;;;;;;;16.52;14.82;;;16.80;99.90;;;;;;5096084;28;20446;-71
2021/08/06 00:28:42;;;;;;;17.10;15.30;;;16.80;99.90;;;;;;5095572;28;20400;-71
2021/08/06 00:31:08;;;;;;;15.82;14.13;;;16.80;99.90;;;;;;5095849;28;20115;-71
2021/08/06 00:33:34;;;;;;;15.88;14.23;;;16.80;99.90;;;;;;5095929;28;20048;-71
2021/08/06 00:36:00;;;;;;;16.70;14.95;;;16.80;99.90;;;;;;5096203;28;20040;-71
2021/08/06 00:38:25;;;;;;;15.85;14.05;;;16.70;99.90;;;;;;5095738;28;20047;-71
2021/08/06 00:40:51;;;;;;;15.27;13.68;;;16.80;99.90;;;;;;5095782;28;20480;-71
2021/08/06 00:43:17;;;;;;;16.35;14.73;;;16.70;99.90;;;;;;5095657;28;20097;-71
2021/08/06 00:45:45;;;;;;;19.00;14.35;;;16.60;99.90;;;;;;5095808;28;20119;-71
2021/08/06 00:48:10;;;;;;;17.33;14.10;;;16.70;99.90;;;;;;5095625;28;20033;-71
2021/08/06 00:50:36;;;;;;;15.90;14.05;;;16.70;99.90;;;;;;5095539;28;20353;-71
2021/08/06 00:53:03;;;;;;;15.40;13.73;;;16.60;99.90;;;;;;5095483;28;20036;-71
2021/08/06 00:55:28;;;;;;;15.55;13.40;;;16.60;99.90;;;;;;5095517;28;20036;-71
2021/08/06 00:57:54;;;;;;;16.05;14.32;;;16.60;99.90;;;;;;5095856;28;20064;-71
2021/08/06 01:00:20;;;;;;;16.48;14.23;;;16.60;99.90;;;;;;5095106;28;20036;-71
2021/08/06 01:02:56;;;;;;;15.80;14.13;;;16.60;99.90;;;;;;5095939;28;20032;-71
2021/08/06 01:05:29;;;;;;;15.93;13.73;;;16.50;99.90;;;;;;5094505;28;20052;-71
2021/08/06 01:08:04;;;;;;;17.10;13.52;;;16.50;99.90;;;;;;5095327;28;20040;-71
2021/08/06 01:10:58;;;;;;;16.98;13.88;;;16.50;99.90;;;;;;5093630;28;20440;-71
2021/08/06 01:13:33;;;;;;;18.80;14.93;;;16.50;99.90;;;;;;5094714;28;20056;-71
2021/08/06 01:16:02;;;;;;;15.13;13.38;;;16.40;99.90;;;;;;5095143;28;20090;-71
2021/08/06 01:18:31;;;;;;;16.70;14.27;;;16.50;99.90;;;;;;5094587;28;20040;-72
2021/08/06 01:21:03;;;;;;;18.20;14.18;;;16.50;99.90;;;;;;5095071;28;20036;-71
2021/08/06 01:23:29;;;;;;;17.67;15.38;;;16.50;99.90;;;;;;5094887;28;20036;-71
2021/08/06 01:26:02;;;;;;;15.27;13.38;;;16.50;99.90;;;;;;5094827;28;20507;-71
2021/08/06 01:28:32;;;;;;;16.35;14.73;;;16.50;99.90;;;;;;5094694;28;20075;-72
2021/08/06 01:30:59;;;;;;;17.02;15.23;;;16.40;99.90;;;;;;5093625;28;20407;-71
2021/08/06 01:33:24;;;;;;;16.63;13.77;;;16.40;99.90;;;;;;5095016;28;20496;-71
2021/08/06 01:35:50;;;;;;;14.60;13.10;;;16.40;99.90;;;;;;5094811;28;20067;-72
2021/08/06 01:38:17;;;;;;;16.08;14.45;;;16.40;99.90;;;;;;5094969;28;20040;-71
2021/08/06 01:40:58;;;;;;;17.20;15.38;;;16.30;99.90;;;;;;5094325;28;20036;-71
2021/08/06 01:44:01;;;;;;;16.98;14.90;;;16.30;99.90;;;;;;5094544;28;20115;-71
2021/08/06 01:46:37;;;;;;;17.92;15.40;;;16.30;99.90;;;;;;5094647;28;20095;-71
2021/08/06 01:49:10;;;;;;;16.80;13.85;;;16.30;99.90;;;;;;5094339;28;20040;-71
2021/08/06 01:51:38;;;;;;;15.18;13.52;;;16.20;99.90;;;;;;5094456;28;20069;-71
2021/08/06 01:54:04;;;;;;;16.23;13.45;;;16.10;99.90;;;;;;5094247;28;20091;-71
2021/08/06 01:56:31;;;;;;;15.88;14.18;;;16.10;99.90;;;;;;5094334;28;20044;-71
2021/08/06 01:58:58;;;;;;;18.63;14.63;;;16.10;99.90;;;;;;5094009;28;20480;-71
2021/08/06 02:01:24;;;;;;;15.63;13.05;;;16.10;99.90;;;;;;5094193;28;20377;-71
2021/08/06 02:03:50;;;;;;;16.50;14.15;;;16.10;99.90;;;;;;5094050;28;20046;-71
2021/08/06 02:06:17;;;;;;;17.48;14.10;;;16.00;99.90;;;;;;5094104;28;20480;-71
2021/08/06 02:08:44;;;;;;;17.02;14.32;;;16.00;99.90;;;;;;5093625;28;20048;-71
2021/08/06 02:11:12;;;;;;;17.20;14.38;;;16.00;99.90;;;;;;5093958;28;20491;-71
2021/08/06 02:13:39;;;;;;;16.75;13.98;;;15.90;99.90;;;;;;5094275;28;20040;-71
2021/08/06 02:16:06;;;;;;;17.30;13.65;;;15.90;99.90;;;;;;5094343;28;20111;-71
2021/08/06 02:18:33;;;;;;;16.75;13.77;;;15.90;99.90;;;;;;5094056;28;20032;-71
2021/08/06 02:21:03;;;;;;;17.83;14.88;;;15.90;99.90;;;;;;5094161;28;20071;-71
2021/08/06 02:23:29;;;;;;;20.70;15.25;;;15.90;99.90;;;;;;5094338;28;20036;-71
2021/08/06 02:25:57;;;;;;;17.83;13.60;;;15.80;99.90;;;;;;5093753;28;20119;-71
2021/08/06 02:28:24;;;;;;;18.60;14.60;;;15.80;99.90;;;;;;5093813;28;20442;-71
2021/08/06 02:30:52;;;;;;;14.90;12.77;;;15.80;99.90;;;;;;5093769;28;20040;-71
2021/08/06 02:33:18;;;;;;;16.50;13.48;;;15.80;99.90;;;;;;5094106;28;20043;-71
2021/08/06 02:35:44;;;;;;;16.25;14.07;;;15.80;99.90;;;;;;5093997;28;20044;-71
2021/08/06 02:38:09;;;;;;;16.77;13.30;;;15.90;99.90;;;;;;5093778;28;20043;-71
2021/08/06 02:40:44;;;;;;;16.70;13.43;;;15.80;99.90;;;;;;5093476;28;20457;-71
2021/08/06 02:43:09;;;;;;;20.70;13.98;;;15.90;99.90;;;;;;5093937;28;20476;-71
2021/08/06 02:45:35;;;;;;;15.77;13.48;;;15.90;99.90;;;;;;5093559;28;20040;-71
2021/08/06 02:48:01;;;;;;;15.18;12.95;;;15.90;99.90;;;;;;5093532;28;20047;-71
2021/08/06 02:50:26;;;;;;;15.40;12.77;;;15.80;99.90;;;;;;5093152;28;20036;-71
2021/08/06 02:52:52;;;;;;;14.40;12.75;;;15.80;99.90;;;;;;5093529;28;20107;-71
2021/08/06 02:55:17;;;;;;;15.68;12.88;;;15.80;99.90;;;;;;5093439;28;20044;-71
2021/08/06 02:57:43;;;;;;;15.88;12.48;;;15.80;99.90;;;;;;5093475;28;20420;-71
2021/08/06 03:00:10;;;;;;;15.23;12.82;;;15.90;99.90;;;;;;5093003;28;20040;-71
2021/08/06 03:02:35;;;;;;;13.95;12.23;;;15.90;99.90;;;;;;5093508;28;20047;-71
2021/08/06 03:05:01;;;;;;;13.55;12.15;;;16.00;99.90;;;;;;5093212;28;20036;-71
2021/08/06 03:07:27;;;;;;;13.25;11.80;;;16.00;99.90;;;;;;5093237;28;20097;-71
2021/08/06 03:09:53;;;;;;;14.85;11.80;;;16.00;99.90;;;;;;5092908;28;20040;-71
2021/08/06 03:12:18;;;;;;;14.27;11.52;;;16.00;99.90;;;;;;5093160;28;20040;-71
2021/08/06 03:14:44;;;;;;;14.10;12.60;;;16.10;99.90;;;;;;5093284;28;20050;-71
2021/08/06 03:17:10;;;;;;;15.88;12.10;;;16.00;99.90;;;;;;5093203;28;20450;-71
2021/08/06 03:19:35;;;;;;;15.30;12.75;;;16.00;99.90;;;;;;5092838;28;20043;-71
2021/08/06 03:22:01;;;;;;;15.43;12.57;;;16.00;99.90;;;;;;5093483;28;20040;-71
2021/08/06 03:24:27;;;;;;;14.93;12.38;;;16.00;99.90;;;;;;5093029;28;20072;-71
2021/08/06 03:26:54;;;;;;;16.92;13.35;;;16.00;99.90;;;;;;5093544;28;20115;-71
2021/08/06 03:29:19;;;;;;;13.57;11.55;;;16.00;99.90;;;;;;5094301;28;20437;-71
2021/08/06 03:31:45;;;;;;;19.73;13.02;;;16.00;99.90;;;;;;5097291;28;20113;-71
2021/08/06 03:34:10;;;;;;;14.93;12.90;;;16.00;99.90;;;;;;5097231;28;20040;-71
2021/08/06 03:36:37;;;;;;;13.38;11.93;;;16.00;99.90;;;;;;5096953;28;20067;-71
2021/08/06 03:39:04;;;;;;;15.32;12.23;;;16.00;99.90;;;;;;5096574;28;20078;-72
2021/08/06 03:41:30;;;;;;;13.98;12.07;;;16.00;99.90;;;;;;5096761;28;20067;-71
2021/08/06 03:43:55;;;;;;;15.85;13.02;;;16.00;99.90;;;;;;5097251;28;20078;-71
2021/08/06 03:46:21;;;;;;;16.15;12.23;;;16.00;99.90;;;;;;5096829;28;20449;-71
2021/08/06 03:48:47;;;;;;;15.35;12.52;;;16.00;99.90;;;;;;5095559;28;20047;-71
2021/08/06 03:51:13;;;;;;;16.83;13.25;;;16.00;99.90;;;;;;5096638;28;20040;-71
2021/08/06 03:53:39;;;;;;;15.82;12.48;;;16.00;99.90;;;;;;5096789;28;20110;-71
2021/08/06 03:56:05;;;;;;;20.27;13.73;;;16.00;99.90;;;;;;5096872;28;20063;-72
2021/08/06 03:58:30;;;;;;;18.25;13.13;;;16.00;99.90;;;;;;5096353;28;20043;-72
2021/08/06 04:00:56;;;;;;;14.82;12.70;;;16.00;99.90;;;;;;5096978;28;20405;-71
2021/08/06 04:03:22;;;;;;;14.75;13.10;;;16.00;99.90;;;;;;5096619;28;20040;-71
2021/08/06 04:05:47;;;;;;;14.07;11.77;;;16.00;99.90;;;;;;5096605;28;20066;-71
2021/08/06 04:08:13;;;;;;;13.85;11.73;;;16.00;99.90;;;;;;5096481;28;20074;-72
2021/08/06 04:10:39;;;;;;;15.05;12.50;;;16.00;99.90;;;;;;5096012;28;20044;-72
2021/08/06 04:13:05;;;;;;;16.70;12.30;;;15.90;99.90;;;;;;5096248;28;20032;-72
2021/08/06 04:15:32;;;;;;;13.73;11.65;;;16.00;99.90;;;;;;5096628;28;20066;-71
2021/08/06 04:17:57;;;;;;;14.73;12.00;;;16.00;99.90;;;;;;5096174;28;20048;-72
2021/08/06 04:20:23;;;;;;;14.75;12.07;;;16.00;99.90;;;;;;5095965;28;20036;-72
2021/08/06 04:22:49;;;;;;;16.67;13.00;;;16.00;99.90;;;;;;5096299;28;20043;-71
2021/08/06 04:25:15;;;;;;;16.00;13.05;;;15.90;99.90;;;;;;5096021;28;20062;-71
2021/08/06 04:27:41;;;;;;;15.25;13.00;;;15.90;99.90;;;;;;5096169;28;20097;-72
2021/08/06 04:30:09;;;;;;;16.75;11.93;;;15.90;99.90;;;;;;5095797;28;20036;-72
2021/08/06 04:32:35;;;;;;;13.02;11.63;;;15.90;99.90;;;;;;5095866;28;20549;-71
2021/08/06 04:35:01;;;;;;;17.98;11.75;;;16.00;99.90;;;;;;5096110;28;20119;-71
2021/08/06 04:37:27;;;;;;;15.93;11.88;;;16.00;99.90;;;;;;5096155;28;20107;-72
2021/08/06 04:39:53;;;;;;;14.40;10.55;;;16.00;99.90;;;;;;5095169;28;20074;-72
2021/08/06 04:42:18;;;;;;;13.68;11.23;;;15.90;99.90;;;;;;5095048;28;20430;-72
2021/08/06 04:44:44;;;;;;;15.68;11.95;;;16.00;99.90;;;;;;5095567;28;20036;-71
2021/08/06 04:47:11;;;;;;;14.00;11.50;;;16.10;99.90;;;;;;5095900;28;20048;-72
2021/08/06 04:49:36;;;;;;;13.25;11.02;;;16.00;99.90;;;;;;5095258;28;20040;-72
2021/08/06 04:52:03;;;;;;;15.73;11.52;;;16.00;99.90;;;;;;5095894;28;20089;-72
2021/08/06 04:54:38;;;;;;;13.43;10.85;;;16.10;99.90;;;;;;5095539;28;20583;-71
2021/08/06 04:57:04;;;;;;;17.55;11.95;;;16.00;99.90;;;;;;5095433;28;20071;-71
2021/08/06 04:59:37;;;;;;;15.48;11.73;;;16.10;99.90;;;;;;5095197;28;20060;-72
2021/08/06 05:02:03;;;;;;;16.30;12.30;;;16.10;99.90;;;;;;5095290;28;20068;-71
2021/08/06 05:04:29;;;;;;;14.48;11.55;;;16.10;99.90;;;;;;5095327;28;20040;-71
2021/08/06 05:06:55;;;;;;;15.05;10.32;;;16.10;99.90;;;;;;5095247;28;20048;-71
2021/08/06 05:09:20;;;;;;;12.68;10.75;;;16.00;99.90;;;;;;5095113;28;20043;-72
2021/08/06 05:11:46;;;;;;;12.38;10.68;;;16.10;99.90;;;;;;5094995;28;20059;-72
2021/08/06 05:14:12;;;;;;;16.50;12.27;;;16.10;99.90;;;;;;5094979;28;20434;-72
2021/08/06 05:16:37;;;;;;;15.10;10.68;;;16.10;99.90;;;;;;5095026;28;20385;-71
2021/08/06 05:19:03;;;;;;;14.13;11.27;;;16.10;99.90;;;;;;5094694;28;20055;-71
2021/08/06 05:21:29;;;;;;;14.95;11.63;;;16.10;99.90;;;;;;5095173;28;20043;-71
2021/08/06 05:23:55;;;;;;;13.00;11.18;;;16.10;99.90;;;;;;5094865;28;20525;-71
2021/08/06 05:26:20;;;;;;;16.30;11.18;;;16.20;99.90;;;;;;5094955;28;20040;-72
2021/08/06 05:28:46;;;;;;;12.77;10.90;;;16.20;99.90;;;;;;5094384;28;20048;-72
2021/08/06 05:31:12;;;;;;;12.02;10.40;;;16.20;99.90;;;;;;5094619;28;20043;-71
2021/08/06 05:33:38;;;;;;;15.30;11.98;;;16.20;99.90;;;;;;5094974;28;20054;-71
2021/08/06 05:36:04;;;;;;;14.27;10.77;;;16.30;99.90;;;;;;5094837;28;20476;-71
2021/08/06 05:38:30;;;;;;;16.80;10.75;;;16.30;99.90;;;;;;5094778;28;20036;-72
2021/08/06 05:40:56;;;;;;;12.30;9.93;;;16.30;99.90;;;;;;5095022;28;20036;-72
2021/08/06 05:43:22;;;;;;;14.30;10.43;;;16.30;99.90;;;;;;5094976;28;20040;-72
2021/08/06 05:45:47;;;;;;;13.85;11.23;;;16.30;99.90;;;;;;5094724;28;20117;-72
2021/08/06 05:48:17;;;;;;;13.70;10.07;;;16.40;99.90;;;;;;5094660;28;20063;-72
2021/08/06 05:50:42;;;;;;;11.82;10.57;;;16.40;99.90;;;;;;5094118;28;20499;-72
2021/08/06 05:53:08;;;;;;;13.80;9.70;;;16.40;99.90;;;;;;5093958;28;20036;-72
2021/08/06 05:55:34;;;;;;;13.02;10.30;;;16.40;99.90;;;;;;5094982;28;20441;-71
2021/08/06 05:58:00;;;;;;;11.98;10.60;;;16.50;99.90;;;;;;5094450;28;20436;-72
2021/08/06 06:00:31;;;;;;;28.58;11.02;;;16.50;99.90;;;;;;5094176;28;20115;-72
2021/08/06 06:02:56;;;;;;;12.23;10.55;;;16.50;99.90;;;;;;5094415;28;20060;-71
2021/08/06 06:05:22;;;;;;;16.17;10.18;;;16.60;99.90;;;;;;5094287;28;20067;-72
2021/08/06 06:07:48;;;;;;;19.23;11.18;;;16.60;99.90;;;;;;5094330;28;20531;-72
2021/08/06 06:10:19;;;;;;;16.63;10.88;;;16.60;99.90;;;;;;5093763;28;20043;-72
2021/08/06 06:12:45;;;;;;;19.48;12.23;;;16.70;99.90;;;;;;5093934;28;20609;-71
2021/08/06 06:15:11;;;;;;;28.02;12.00;;;16.70;99.90;;;;;;5094452;28;20040;-71
2021/08/06 06:17:37;;;;;;;21.25;11.10;;;16.80;99.90;;;;;;5094625;28;20036;-71
2021/08/06 06:20:04;;;;;;;25.20;11.50;;;16.90;99.90;;;;;;5094263;28;20070;-71
2021/08/06 06:22:30;;;;;;;11.30;9.52;;;17.10;99.90;;;;;;5093707;28;20051;-71
2021/08/06 06:24:56;;;;;;;11.82;9.77;;;17.40;99.90;;;;;;5094041;28;20085;-72
2021/08/06 06:27:22;;;;;;;12.63;9.18;;;17.70;99.90;;;;;;5093690;28;20111;-71
2021/08/06 06:29:48;;;;;;;11.02;9.88;;;17.80;99.90;;;;;;5093448;28;20127;-71
2021/08/06 06:32:14;;;;;;;10.98;9.73;;;17.80;99.90;;;;;;5093682;28;20071;-71
2021/08/06 06:34:39;;;;;;;14.95;9.13;;;17.90;99.90;;;;;;5093673;28;20047;-71
2021/08/06 06:37:05;;;;;;;11.63;8.57;;;17.90;99.90;;;;;;5094072;28;20028;-72
2021/08/06 06:39:31;;;;;;;14.15;9.35;;;17.80;99.90;;;;;;5093719;28;20071;-71
2021/08/06 06:41:56;;;;;;;12.32;8.63;;;17.70;99.90;;;;;;5093608;28;20036;-71
2021/08/06 06:44:23;;;;;;;13.20;9.85;;;17.70;99.90;;;;;;5093757;28;20129;-71
2021/08/06 06:46:49;;;;;;;11.93;8.13;;;17.70;99.90;;;;;;5093585;28;20486;-71
2021/08/06 06:49:14;;;;;;;12.45;8.82;;;17.70;99.90;;;;;;5093065;28;20063;-71
2021/08/06 06:51:40;;;;;;;11.77;7.88;;;17.70;99.90;;;;;;5093284;28;20078;-71
2021/08/06 06:54:06;;;;;;;11.05;8.65;;;17.70;99.90;;;;;;5093557;28;20044;-71
2021/08/06 06:56:31;;;;;;;13.68;8.98;;;17.60;99.90;;;;;;5093514;28;20040;-71
2021/08/06 06:58:57;;;;;;;11.10;9.13;;;17.70;99.90;;;;;;5093060;28;20571;-72
2021/08/06 07:01:23;;;;;;;11.70;9.48;;;17.60;99.90;;;;;;5093455;28;20040;-72
2021/08/06 07:03:49;;;;;;;10.75;9.07;;;17.70;99.90;;;;;;5093994;28;20085;-71
2021/08/06 07:06:20;;;;;;;11.13;8.50;;;17.70;99.90;;;;;;5097501;28;20040;-71
2021/08/06 07:08:47;;;;;;;10.43;8.90;;;17.70;99.90;;;;;;5097476;28;20047;-71
2021/08/06 07:11:13;;;;;;;10.38;8.20;;;17.80;99.90;;;;;;5097576;28;20043;-71
2021/08/06 07:13:39;;;;;;;12.48;8.77;;;17.90;99.90;;;;;;5097588;28;20114;-71
2021/08/06 07:16:06;;;;;;;9.55;7.88;;;18.00;99.90;;;;;;5097291;28;20481;-71
2021/08/06 07:18:32;;;;;;;10.55;8.48;;;18.00;99.90;;;;;;5097048;28;20112;-72
2021/08/06 07:21:01;;;;;;;11.50;8.70;;;18.10;99.90;;;;;;5078407;28;20043;-71
2021/08/06 07:23:30;;;;;;;12.77;8.93;;;18.10;99.90;;;;;;5076838;28;20042;-71
2021/08/06 07:25:57;;;;;;;14.55;7.95;;;18.10;99.90;;;;;;5077153;28;20495;-71
2021/08/06 07:28:23;;;;;;;12.63;8.40;;;18.10;99.90;;;;;;5077140;28;20094;-71
2021/08/06 07:30:49;;;;;;;12.50;8.77;;;18.10;99.90;;;;;;5076500;28;20045;-72
2021/08/06 07:33:15;;;;;;;11.25;8.48;;;18.10;99.90;;;;;;5076718;28;20542;-71
2021/08/06 07:35:40;;;;;;;10.23;8.40;;;18.20;99.90;;;;;;5076654;28;20044;-71
2021/08/06 07:38:06;;;;;;;11.27;8.02;;;18.20;99.90;;;;;;5077109;28;20391;-71
2021/08/06 07:40:32;;;;;;;12.10;8.55;;;18.20;99.90;;;;;;5076510;28;20040;-72
2021/08/06 07:42:58;;;;;;;11.43;8.43;;;18.10;99.90;;;;;;5076574;28;20097;-72
2021/08/06 07:45:24;;;;;;;14.27;9.68;;;18.10;99.90;;;;;;5075801;28;20041;-71
2021/08/06 07:47:50;;;;;;;15.60;10.23;;;17.90;99.90;;;;;;5076660;28;20105;-71
2021/08/06 07:50:16;;;;;;;11.68;9.00;;;17.80;99.90;;;;;;5076024;28;20040;-71
2021/08/06 07:52:42;;;;;;;13.65;9.07;;;17.80;99.90;;;;;;5076489;28;20066;-72
2021/08/06 07:55:12;;;;;;;12.60;9.95;;;17.80;99.90;;;;;;5076504;28;20079;-72
2021/08/06 07:57:38;;;;;;;10.20;8.75;;;17.80;99.90;;;;;;5076408;28;20064;-72
2021/08/06 08:00:04;;;;;;;17.38;10.18;;;17.90;99.90;;;;;;5075959;28;20078;-71
2021/08/06 08:02:31;;;;;;;11.68;9.50;;;17.90;99.90;;;;;;5076531;28;20083;-72
2021/08/06 08:04:57;;;;;;;11.43;9.15;;;17.90;99.90;;;;;;5076286;28;20076;-71
2021/08/06 08:07:23;;;;;;;10.18;8.73;;;18.00;99.90;;;;;;5076154;28;20071;-71
2021/08/06 08:09:49;;;;;;;10.85;9.55;;;18.10;99.90;;;;;;5075800;28;20040;-71
2021/08/06 08:12:14;;;;;;;12.15;8.90;;;18.10;99.90;;;;;;5075979;28;20055;-71
2021/08/06 08:14:40;;;;;;;10.10;8.20;;;18.10;99.90;;;;;;5075784;28;20070;-71
2021/08/06 08:17:06;;;;;;;8.82;7.93;;;18.20;99.90;;;;;;5076039;28;20119;-71
2021/08/06 08:19:32;;;;;;;9.25;7.38;;;18.30;99.90;;;;;;5075577;28;20041;-71
2021/08/06 08:21:58;;;;;;;9.57;7.32;;;18.30;99.90;;;;;;5076216;28;20178;-71
2021/08/06 08:24:23;;;;;;;10.63;7.85;;;18.30;99.90;;;;;;5076069;28;20045;-71
2021/08/06 08:26:49;;;;;;;9.20;7.38;;;18.30;99.90;;;;;;5076216;28;20039;-71
2021/08/06 08:29:15;;;;;;;10.43;8.48;;;18.30;99.90;;;;;;5075397;28;20036;-71
2021/08/06 08:31:41;;;;;;;8.45;7.55;;;18.30;99.90;;;;;;5076218;28;20468;-71
2021/08/06 08:34:06;;;;;;;9.48;7.22;;;18.30;99.90;;;;;;5075824;28;20044;-71
2021/08/06 08:36:32;;;;;;;8.60;7.13;;;18.30;99.90;;;;;;5075597;28;20457;-70
2021/08/06 08:38:58;;;;;;;9.70;7.57;;;18.30;99.90;;;;;;5075235;28;20102;-71
2021/08/06 08:41:24;;;;;;;14.32;8.18;;;18.30;99.90;;;;;;5075842;28;20043;-72
2021/08/06 08:43:50;;;;;;;8.85;7.88;;;18.30;99.90;;;;;;5075763;28;20051;-71
2021/08/06 08:46:19;;;;;;;10.88;7.75;;;18.40;99.90;;;;;;5075618;28;20040;-72
2021/08/06 08:48:47;;;;;;;8.50;6.65;;;18.50;99.90;;;;;;5075195;28;20155;-71
2021/08/06 08:51:13;;;;;;;12.50;7.97;;;18.40;99.90;;;;;;5075167;28;20043;-72
2021/08/06 08:53:39;;;;;;;9.85;7.20;;;18.40;99.90;;;;;;5075295;28;20111;-71
2021/08/06 08:56:05;;;;;;;10.13;8.70;;;18.40;99.90;;;;;;5074370;28;20037;-72
2021/08/06 08:58:31;;;;;;;10.50;8.48;;;18.30;99.90;;;;;;5075129;28;20447;-72
2021/08/06 09:00:57;;;;;;;11.60;9.55;;;18.30;99.90;;;;;;5075254;28;20393;-72
2021/08/06 09:03:55;;;;;;;16.70;11.25;;;18.30;99.90;;;;;;5075147;28;20036;-71
2021/08/06 09:06:41;;;;;;;16.15;12.73;;;18.30;99.90;;;;;;5073797;28;20496;-71
2021/08/06 09:09:21;;;;;;;16.30;11.75;;;18.10;99.90;;;;;;5074489;28;20481;-72
2021/08/06 09:11:48;;;;;;;11.10;9.65;;;18.10;99.90;;;;;;5074908;28;20454;-72
2021/08/06 09:14:24;;;;;;;11.18;8.82;;;18.00;99.90;;;;;;5074732;28;20488;-72
2021/08/06 09:17:00;;;;;;;7.70;6.47;;;18.00;99.90;;;;;;5073613;28;20052;-72
2021/08/06 09:19:29;;;;;;;8.02;6.60;;;17.90;99.90;;;;;;5074518;28;20036;-72
2021/08/06 09:22:15;;;;;;;6.35;5.47;;;17.90;99.90;;;;;;5074776;28;20037;-72
2021/08/06 09:25:10;;;;;;;6.63;5.55;;;18.00;99.90;;;;;;5073401;28;20041;-72
2021/08/06 09:27:48;;;;;;;6.10;5.30;;;18.00;99.90;;;;;;5074041;28;20505;-72
2021/08/06 09:30:22;;;;;;;5.60;4.70;;;18.00;99.90;;;;;;5074230;28;20062;-72
2021/08/06 09:32:52;;;;;;;5.72;4.88;;;18.00;99.90;;;;;;5074503;28;20048;-72
2021/08/06 09:35:20;;;;;;;7.40;6.65;;;18.10;99.90;;;;;;5074463;28;20032;-72
2021/08/06 09:37:46;;;;;;;6.82;6.22;;;18.20;99.90;;;;;;5073178;28;20043;-72
2021/08/06 09:40:15;;;;;;;7.35;6.30;;;18.60;99.90;;;;;;5074061;28;20036;-72
2021/08/06 09:42:51;;;;;;;6.22;5.63;;;19.00;99.90;;;;;;5074842;28;20032;-72
2021/08/06 09:45:18;;;;;;;8.05;7.25;;;19.40;99.90;;;;;;5074249;28;20052;-72
2021/08/06 09:47:46;;;;;;;6.78;6.15;;;19.70;99.90;;;;;;5074303;28;20036;-72
2021/08/06 09:50:14;;;;;;;6.90;6.22;;;19.90;99.90;;;;;;5074050;28;20044;-72
2021/08/06 09:52:43;;;;;;;5.68;5.10;;;20.00;99.90;;;;;;5074182;28;20068;-73
2021/08/06 09:55:16;;;;;;;7.22;6.03;;;20.00;99.90;;;;;;5073987;28;20489;-72
2021/08/06 09:57:45;;;;;;;5.35;4.85;;;19.90;99.90;;;;;;5074138;28;20067;-72
2021/08/06 10:00:16;;;;;;;6.53;4.78;;;19.80;99.90;;;;;;5073792;28;20040;-72
2021/08/06 10:02:43;;;;;;;5.43;4.45;;;19.70;99.90;;;;;;5074012;28;20041;-72
2021/08/06 10:05:14;;;;;;;5.80;5.25;;;19.60;99.90;;;;;;5074305;28;20048;-72
2021/08/06 10:07:46;;;;;;;5.45;4.95;;;19.50;99.90;;;;;;5074399;28;20492;-72
2021/08/06 10:10:17;;;;;;;7.75;4.88;;;19.30;99.90;;;;;;5073558;28;20037;-72
2021/08/06 10:12:43;;;;;;;7.13;5.35;;;19.20;99.90;;;;;;5073858;28;20198;-72
2021/08/06 10:15:10;;;;;;;10.60;7.68;;;19.00;99.90;;;;;;5073665;28;20044;-72
2021/08/06 10:17:36;;;;;;;10.50;8.45;;;18.90;99.90;;;;;;5074204;28;20040;-72
2021/08/06 10:20:04;;;;;;;8.73;7.82;;;18.90;99.90;;;;;;5073540;28;20036;-72
2021/08/06 10:22:30;;;;;;;8.68;7.93;;;18.80;99.90;;;;;;5073301;28;20094;-72
2021/08/06 10:24:56;;;;;;;8.25;7.50;;;18.70;99.90;;;;;;5075059;28;20040;-73
2021/08/06 10:27:25;;;;;;;8.27;7.57;;;18.70;99.90;;;;;;5093806;28;20507;-73
2021/08/06 10:30:07;;;;;;;8.82;8.02;;;18.60;99.90;;;;;;5093542;28;20040;-72
2021/08/06 10:32:33;;;;;;;9.38;6.88;;;18.60;99.90;;;;;;5094032;28;20115;-72
2021/08/06 10:35:02;;;;;;;7.70;6.82;;;18.60;99.90;;;;;;5093653;28;20052;-72
2021/08/06 10:37:51;;;;;;;7.55;6.75;;;18.60;99.90;;;;;;5093719;28;20039;-72
2021/08/06 10:40:31;;;;;;;5.80;4.18;;;18.60;99.90;;;;;;5093406;28;20032;-72
2021/08/06 10:42:58;;;;;;;3.35;2.50;;;18.70;99.90;;;;;;5093716;28;20040;-72
2021/08/06 10:45:46;;;;;;;3.63;2.80;;;18.90;99.90;;;;;;5093540;28;20044;-72
2021/08/06 10:48:26;;;;;;;3.30;2.40;;;19.00;99.90;;;;;;5093432;28;20085;-72
2021/08/06 10:51:14;;;;;;;4.20;2.80;;;19.30;99.90;;;;;;5092884;28;20076;-72
2021/08/06 10:53:41;;;;;;;3.10;2.80;;;19.60;99.90;;;;;;5093330;28;20430;-72
2021/08/06 10:56:16;;;;;;;4.88;3.60;;;19.70;99.90;;;;;;5093482;28;20040;-72
2021/08/06 11:01:27;;;;;;;4.32;3.00;;;19.90;99.90;;;;;;5093353;28;20040;-71
2021/08/06 11:04:18;;;;;;;3.83;3.20;;;19.90;99.90;;;;;;5093292;28;20063;-71
2021/08/06 11:06:46;;;;;;;4.03;3.60;;;19.80;99.90;;;;;;5093323;28;20048;-71
2021/08/06 11:11:59;;;;;;;4.88;4.10;;;19.80;99.90;;;;;;5093246;28;20535;-71
2021/08/06 11:14:39;;;;;;;4.07;3.20;;;20.00;99.90;;;;;;5092011;28;20119;-71
2021/08/06 11:17:17;;;;;;;4.38;3.60;;;20.00;99.90;;;;;;5093425;28;20081;-71
2021/08/06 11:19:44;;;;;;;5.68;3.35;;;20.10;99.90;;;;;;5092808;28;20032;-70
2021/08/06 11:22:29;;;;;;;4.00;3.38;;;20.30;99.90;;;;;;5093253;28;20111;-71
2021/08/06 11:25:01;;;;;;;4.05;3.40;;;20.40;99.90;;;;;;5093785;28;20036;-71
2021/08/06 11:27:35;;;;;;;4.18;3.53;;;20.40;99.90;;;;;;5093307;28;20062;-71
2021/08/06 11:30:15;;;;;;;4.82;2.97;;;20.30;99.90;;;;;;5091958;28;20036;-71
2021/08/06 11:32:53;;;;;;;4.20;3.35;;;20.30;99.90;;;;;;5093088;28;20480;-71
2021/08/06 11:35:33;;;;;;;2.63;2.13;;;20.10;99.90;;;;;;5093481;28;20063;-72
2021/08/06 11:38:00;;;;;;;2.80;1.85;;;19.80;99.90;;;;;;5092377;28;20130;-71
2021/08/06 11:40:28;;;;;;;1.98;1.42;;;19.40;99.90;;;;;;5092824;28;20056;-72
2021/08/06 11:42:55;;;;;;;3.75;1.90;;;19.20;99.90;;;;;;5092988;28;20036;-72
2021/08/06 11:45:23;;;;;;;3.65;1.90;;;19.00;99.90;;;;;;5093007;28;20044;-72
2021/08/06 11:47:58;;;;;;;4.97;2.55;;;18.90;99.90;;;;;;5093322;28;20377;-72
2021/08/06 11:50:45;;;;;;;4.65;2.38;;;19.10;99.90;;;;;;5093845;28;20032;-71
2021/08/06 11:53:14;;;;;;;4.47;2.70;;;19.40;99.90;;;;;;5096899;28;20040;-71
2021/08/06 11:55:39;;;;;;;5.35;2.90;;;19.60;99.90;;;;;;5096743;28;20047;-71
2021/08/06 11:58:05;;;;;;;4.03;2.90;;;19.80;99.90;;;;;;5096702;28;20498;-71
2021/08/06 12:00:34;;;;;;;4.78;3.13;;;19.90;99.90;;;;;;5096366;28;20032;-71
2021/08/06 12:03:09;;;;;;;5.07;3.95;;;20.00;99.90;;;;;;5096714;28;20036;-72
2021/08/06 12:05:41;;;;;;;7.07;3.75;;;20.10;99.90;;;;;;5096489;28;20092;-71
2021/08/06 12:08:31;;;;;;;6.28;3.65;;;20.20;99.90;;;;;;5096635;28;20489;-71
2021/08/06 12:11:05;;;;;;;4.47;3.40;;;20.60;99.90;;;;;;5096808;28;20047;-71
2021/08/06 12:13:37;;;;;;;5.57;4.20;;;20.70;99.90;;;;;;5096410;28;20032;-71
2021/08/06 12:16:11;;;;;;;4.40;4.00;;;20.70;99.90;;;;;;5095134;28;20515;-71
2021/08/06 12:18:44;;;;;;;5.93;4.05;;;20.90;99.90;;;;;;5095951;28;20377;-72
2021/08/06 12:21:22;;;;;;;5.47;4.38;;;21.00;99.90;;;;;;5096171;28;20123;-71
2021/08/06 12:23:59;;;;;;;4.88;4.07;;;21.00;99.90;;;;;;5096419;28;20032;-71
2021/08/06 12:26:34;;;;;;;5.32;4.78;;;20.90;99.90;;;;;;5096195;28;20083;-71
2021/08/06 12:29:10;;;;;;;6.78;4.15;;;20.80;99.90;;;;;;5096067;28;20040;-71
2021/08/06 12:31:57;;;;;;;6.57;5.93;;;20.60;99.90;;;;;;5096044;28;20036;-71
2021/08/06 12:34:25;;;;;;;10.27;6.60;;;20.40;99.90;;;;;;5094401;28;20507;-71
2021/08/06 12:37:19;;;;;;;9.15;6.55;;;20.20;99.90;;;;;;5095909;28;20048;-71
2021/08/06 12:39:48;;;;;;;8.63;6.65;;;20.00;99.90;;;;;;5095236;28;20076;-71
2021/08/06 12:42:15;;;;;;;12.80;7.82;;;19.80;99.90;;;;;;5095718;28;20063;-71
2021/08/06 12:44:52;;;;;;;9.23;6.53;;;19.80;99.90;;;;;;5095625;28;20129;-71
2021/08/06 12:47:18;;;;;;;8.18;6.53;;;19.80;99.90;;;;;;5095960;28;20489;-71
2021/08/06 12:49:46;;;;;;;8.65;7.18;;;20.00;99.90;;;;;;5095352;28;20059;-71